Roxboro, Canada
Current Conditions -  °F | °C
As of 6:00 PM on Sunday 21 Dec 2014 (Local Time) from CYUL Reporting Station
Light Snow Light Snow  
Wind Chill:   Ceiling: 2200
Heat Index: 18°   Visibility: 12mi
Dew Point: 14°   Wind: 8mph
Humidity: 86%   Direction: 40°NE
Pressure: 30.39"   Gusts: NA
Location:  45.5°N, 73.82°W
Report Text: CYUL 212300Z 04007KT 12SM -SN FEW012 OVC022 M08/M10 A3039 RMK SF1SC8 SF TR SLP295
Loading
Personal Weather Stations






























Interactive Weather Map New forecast layout! Learn more

10-Day Weather Forecast

Advertisements
Track Severe Weather on mobile